sensor_id;sensor_type;location;lat;lon;timestamp;pressure;altitude;pressure_sealevel;temperature;humidity
19023;BME280;35226;48.606;8.858;2023-02-21T00:01:27;96774.47;;;4.04;100.00
19023;BME280;35226;48.606;8.858;2023-02-21T00:04:11;96766.25;;;3.97;100.00
19023;BME280;35226;48.606;8.858;2023-02-21T00:06:56;96770.56;;;3.91;100.00
19023;BME280;35226;48.606;8.858;2023-02-21T00:09:40;96769.00;;;3.90;100.00
19023;BME280;35226;48.606;8.858;2023-02-21T00:12:24;96771.69;;;3.83;100.00
19023;BME280;35226;48.606;8.858;2023-02-21T00:15:09;96769.34;;;3.78;100.00
19023;BME280;35226;48.606;8.858;2023-02-21T00:17:53;96771.28;;;3.74;100.00
19023;BME280;35226;48.606;8.858;2023-02-21T00:20:37;96763.88;;;3.71;100.00
19023;BME280;35226;48.606;8.858;2023-02-21T00:23:21;96766.59;;;3.67;100.00
19023;BME280;35226;48.606;8.858;2023-02-21T00:26:06;96760.31;;;3.63;100.00
19023;BME280;35226;48.606;8.858;2023-02-21T00:28:50;96760.31;;;3.56;100.00
19023;BME280;35226;48.606;8.858;2023-02-21T00:31:34;96763.00;;;3.46;100.00
19023;BME280;35226;48.606;8.858;2023-02-21T00:34:18;96757.16;;;3.40;100.00
19023;BME280;35226;48.606;8.858;2023-02-21T00:37:02;96748.53;;;3.31;100.00
19023;BME280;35226;48.606;8.858;2023-02-21T00:39:46;96754.81;;;3.39;100.00
19023;BME280;35226;48.606;8.858;2023-02-21T00:42:30;96753.22;;;3.34;100.00
19023;BME280;35226;48.606;8.858;2023-02-21T00:45:14;96756.31;;;3.22;100.00
19023;BME280;35226;48.606;8.858;2023-02-21T00:47:58;96755.91;;;3.23;100.00
19023;BME280;35226;48.606;8.858;2023-02-21T00:50:42;96755.91;;;3.20;100.00
19023;BME280;35226;48.606;8.858;2023-02-21T00:53:26;96756.34;;;3.36;100.00
19023;BME280;35226;48.606;8.858;2023-02-21T00:56:10;96752.06;;;3.31;100.00
19023;BME280;35226;48.606;8.858;2023-02-21T00:58:55;96761.38;;;3.27;100.00
19023;BME280;35226;48.606;8.858;2023-02-21T01:01:39;96750.81;;;3.18;100.00
19023;BME280;35226;48.606;8.858;2023-02-21T01:04:23;96752.38;;;3.16;100.00
19023;BME280;35226;48.606;8.858;2023-02-21T01:07:07;96744.19;;;3.16;100.00
19023;BME280;35226;48.606;8.858;2023-02-21T01:09:51;96745.31;;;3.08;100.00
19023;BME280;35226;48.606;8.858;2023-02-21T01:12:35;96754.69;;;3.03;100.00
19023;BME280;35226;48.606;8.858;2023-02-21T01:15:19;96748.41;;;2.99;100.00
19023;BME280;35226;48.606;8.858;2023-02-21T01:18:03;96750.72;;;2.97;100.00
19023;BME280;35226;48.606;8.858;2023-02-21T01:20:47;96748.38;;;2.92;100.00
19023;BME280;35226;48.606;8.858;2023-02-21T01:23:32;96747.56;;;2.88;100.00
19023;BME280;35226;48.606;8.858;2023-02-21T01:26:17;96753.00;;;2.84;100.00
19023;BME280;35226;48.606;8.858;2023-02-21T01:29:01;96745.59;;;2.85;100.00
19023;BME280;35226;48.606;8.858;2023-02-21T01:31:45;96745.59;;;2.81;100.00
19023;BME280;35226;48.606;8.858;2023-02-21T01:34:29;96744.38;;;2.75;100.00
19023;BME280;35226;48.606;8.858;2023-02-21T01:37:13;96737.75;;;2.76;100.00
19023;BME280;35226;48.606;8.858;2023-02-21T01:39:57;96743.19;;;2.69;100.00
19023;BME280;35226;48.606;8.858;2023-02-21T01:42:42;96747.81;;;2.65;100.00
19023;BME280;35226;48.606;8.858;2023-02-21T01:45:40;96740.81;;;2.64;100.00
19023;BME280;35226;48.606;8.858;2023-02-21T01:48:29;96731.44;;;2.62;100.00
19023;BME280;35226;48.606;8.858;2023-02-21T01:51:21;96730.28;;;2.63;100.00
19023;BME280;35226;48.606;8.858;2023-02-21T01:54:07;96728.28;;;2.56;100.00
19023;BME280;35226;48.606;8.858;2023-02-21T01:56:52;96727.06;;;2.46;100.00
19023;BME280;35226;48.606;8.858;2023-02-21T01:59:38;96738.84;;;2.65;100.00
19023;BME280;35226;48.606;8.858;2023-02-21T02:05:16;96725.53;;;2.49;100.00
19023;BME280;35226;48.606;8.858;2023-02-21T02:08:01;96725.06;;;2.40;100.00
19023;BME280;35226;48.606;8.858;2023-02-21T02:10:45;96728.28;;;2.52;100.00
19023;BME280;35226;48.606;8.858;2023-02-21T02:16:41;96730.19;;;2.48;100.00
19023;BME280;35226;48.606;8.858;2023-02-21T02:19:42;96725.84;;;2.40;100.00
19023;BME280;35226;48.606;8.858;2023-02-21T02:24:53;96716.22;;;2.53;100.00
19023;BME280;35226;48.606;8.858;2023-02-21T02:27:40;96717.00;;;2.54;100.00
19023;BME280;35226;48.606;8.858;2023-02-21T02:30:40;96727.91;;;2.54;100.00
19023;BME280;35226;48.606;8.858;2023-02-21T02:36:05;96717.63;;;2.33;100.00
19023;BME280;35226;48.606;8.858;2023-02-21T02:38:56;96715.75;;;2.41;100.00
19023;BME280;35226;48.606;8.858;2023-02-21T02:41:53;96716.41;;;2.27;100.00
19023;BME280;35226;48.606;8.858;2023-02-21T02:44:21;96712.59;;;2.39;100.00
19023;BME280;35226;48.606;8.858;2023-02-21T02:46:51;96712.25;;;2.47;100.00
19023;BME280;35226;48.606;8.858;2023-02-21T02:49:21;96708.72;;;2.40;100.00
19023;BME280;35226;48.606;8.858;2023-02-21T02:51:48;96705.91;;;2.29;100.00
19023;BME280;35226;48.606;8.858;2023-02-21T02:54:17;96712.97;;;2.37;100.00
19023;BME280;35226;48.606;8.858;2023-02-21T02:56:43;96712.56;;;2.32;100.00
19023;BME280;35226;48.606;8.858;2023-02-21T02:59:12;96710.59;;;2.29;100.00
19023;BME280;35226;48.606;8.858;2023-02-21T03:09:28;96708.19;;;2.20;100.00
19023;BME280;35226;48.606;8.858;2023-02-21T03:15:05;96711.28;;;2.18;100.00
19023;BME280;35226;48.606;8.858;2023-02-21T03:17:39;96701.59;;;2.21;100.00
19023;BME280;35226;48.606;8.858;2023-02-21T03:20:08;96703.53;;;2.20;100.00
19023;BME280;35226;48.606;8.858;2023-02-21T03:22:35;96698.44;;;2.19;100.00
19023;BME280;35226;48.606;8.858;2023-02-21T03:25:03;96694.53;;;2.13;100.00
19023;BME280;35226;48.606;8.858;2023-02-21T03:27:30;96696.47;;;2.16;100.00
19023;BME280;35226;48.606;8.858;2023-02-21T03:30:27;96705.06;;;2.14;100.00
19023;BME280;35226;48.606;8.858;2023-02-21T03:32:54;96691.38;;;2.11;100.00
19023;BME280;35226;48.606;8.858;2023-02-21T03:35:23;96697.28;;;2.20;100.00
19023;BME280;35226;48.606;8.858;2023-02-21T03:37:54;96694.16;;;2.18;100.00
19023;BME280;35226;48.606;8.858;2023-02-21T03:40:29;96688.28;;;2.16;100.00
19023;BME280;35226;48.606;8.858;2023-02-21T03:42:59;96691.00;;;2.12;100.00
19023;BME280;35226;48.606;8.858;2023-02-21T03:45:28;96691.34;;;2.07;100.00
19023;BME280;35226;48.606;8.858;2023-02-21T03:48:15;96689.78;;;2.03;100.00
19023;BME280;35226;48.606;8.858;2023-02-21T03:50:41;96689.66;;;1.85;100.00
19023;BME280;35226;48.606;8.858;2023-02-21T03:53:08;96686.16;;;1.88;100.00
19023;BME280;35226;48.606;8.858;2023-02-21T03:55:34;96685.00;;;1.89;100.00
19023;BME280;35226;48.606;8.858;2023-02-21T03:58:04;96688.16;;;1.98;100.00
19023;BME280;35226;48.606;8.858;2023-02-21T04:00:31;96686.22;;;1.95;100.00
19023;BME280;35226;48.606;8.858;2023-02-21T04:02:57;96690.44;;;1.85;100.00
19023;BME280;35226;48.606;8.858;2023-02-21T04:05:48;96688.78;;;1.77;100.00
19023;BME280;35226;48.606;8.858;2023-02-21T04:08:15;96690.81;;;1.88;100.00
19023;BME280;35226;48.606;8.858;2023-02-21T04:10:41;96692.69;;;1.80;100.00
19023;BME280;35226;48.606;8.858;2023-02-21T04:13:07;96685.28;;;1.77;100.00
19023;BME280;35226;48.606;8.858;2023-02-21T04:15:39;96682.13;;;1.71;100.00
19023;BME280;35226;48.606;8.858;2023-02-21T04:18:05;96686.78;;;1.71;100.00
19023;BME280;35226;48.606;8.858;2023-02-21T04:20:31;96691.41;;;1.63;100.00
19023;BME280;35226;48.606;8.858;2023-02-21T04:22:58;96695.69;;;1.64;100.00
19023;BME280;35226;48.606;8.858;2023-02-21T04:25:24;96693.28;;;1.56;100.00
19023;BME280;35226;48.606;8.858;2023-02-21T04:27:56;96695.22;;;1.55;100.00
19023;BME280;35226;48.606;8.858;2023-02-21T04:30:21;96697.94;;;1.55;100.00
19023;BME280;35226;48.606;8.858;2023-02-21T04:32:47;96690.56;;;1.59;100.00
19023;BME280;35226;48.606;8.858;2023-02-21T04:35:14;96684.69;;;1.54;100.00
19023;BME280;35226;48.606;8.858;2023-02-21T04:37:41;96684.63;;;1.46;100.00
19023;BME280;35226;48.606;8.858;2023-02-21T04:40:10;96685.81;;;1.49;100.00
19023;BME280;35226;48.606;8.858;2023-02-21T04:42:36;96688.50;;;1.45;100.00
19023;BME280;35226;48.606;8.858;2023-02-21T04:45:01;96689.41;;;1.57;100.00
19023;BME280;35226;48.606;8.858;2023-02-21T04:47:27;96680.78;;;1.51;100.00
19023;BME280;35226;48.606;8.858;2023-02-21T04:49:53;96676.06;;;1.48;100.00
19023;BME280;35226;48.606;8.858;2023-02-21T04:52:18;96684.63;;;1.46;100.00
19023;BME280;35226;48.606;8.858;2023-02-21T04:54:45;96674.91;;;1.49;100.00
19023;BME280;35226;48.606;8.858;2023-02-21T04:57:11;96679.22;;;1.50;100.00
19023;BME280;35226;48.606;8.858;2023-02-21T04:59:37;96674.13;;;1.45;100.00
19023;BME280;35226;48.606;8.858;2023-02-21T05:02:02;96674.53;;;1.51;100.00
19023;BME280;35226;48.606;8.858;2023-02-21T05:04:30;96678.84;;;1.52;100.00
19023;BME280;35226;48.606;8.858;2023-02-21T05:06:57;96670.25;;;1.46;100.00
19023;BME280;35226;48.606;8.858;2023-02-21T05:09:23;96669.81;;;1.44;100.00
19023;BME280;35226;48.606;8.858;2023-02-21T05:11:49;96664.72;;;1.39;100.00
19023;BME280;35226;48.606;8.858;2023-02-21T05:14:14;96670.25;;;1.46;100.00
19023;BME280;35226;48.606;8.858;2023-02-21T05:16:42;96661.59;;;1.37;100.00
19023;BME280;35226;48.606;8.858;2023-02-21T05:19:08;96658.91;;;1.40;100.00
19023;BME280;35226;48.606;8.858;2023-02-21T05:21:34;96668.19;;;1.36;100.00
19023;BME280;35226;48.606;8.858;2023-02-21T05:24:06;96667.00;;;1.33;100.00
19023;BME280;35226;48.606;8.858;2023-02-21T05:26:35;96665.00;;;1.30;100.00
19023;BME280;35226;48.606;8.858;2023-02-21T05:29:01;96671.97;;;1.28;100.00
19023;BME280;35226;48.606;8.858;2023-02-21T05:31:27;96666.53;;;1.28;100.00
19023;BME280;35226;48.606;8.858;2023-02-21T05:33:53;96670.03;;;1.25;100.00
19023;BME280;35226;48.606;8.858;2023-02-21T05:36:19;96667.72;;;1.27;100.00
19023;BME280;35226;48.606;8.858;2023-02-21T05:38:49;96671.59;;;1.26;100.00
19023;BME280;35226;48.606;8.858;2023-02-21T05:41:16;96680.16;;;1.28;100.00
19023;BME280;35226;48.606;8.858;2023-02-21T05:43:43;96683.25;;;1.26;100.00
19023;BME280;35226;48.606;8.858;2023-02-21T05:46:24;96677.25;;;1.10;100.00
19023;BME280;35226;48.606;8.858;2023-02-21T05:48:51;96686.31;;;1.21;100.00
19023;BME280;35226;48.606;8.858;2023-02-21T05:51:17;96674.31;;;1.26;100.00
19023;BME280;35226;48.606;8.858;2023-02-21T05:53:43;96668.75;;;1.15;100.00
19023;BME280;35226;48.606;8.858;2023-02-21T05:56:09;96676.25;;;1.25;100.00
19023;BME280;35226;48.606;8.858;2023-02-21T05:58:34;96676.94;;;1.15;100.00
19023;BME280;35226;48.606;8.858;2023-02-21T06:01:00;96674.28;;;1.22;100.00
19023;BME280;35226;48.606;8.858;2023-02-21T06:03:25;96677.28;;;1.14;100.00
19023;BME280;35226;48.606;8.858;2023-02-21T06:05:51;96674.16;;;1.11;100.00
19023;BME280;35226;48.606;8.858;2023-02-21T06:08:17;96678.38;;;1.05;100.00
19023;BME280;35226;48.606;8.858;2023-02-21T06:10:42;96675.66;;;1.05;100.00
19023;BME280;35226;48.606;8.858;2023-02-21T06:13:08;96672.16;;;1.05;100.00
19023;BME280;35226;48.606;8.858;2023-02-21T06:15:33;96672.88;;;1.02;100.00
19023;BME280;35226;48.606;8.858;2023-02-21T06:17:59;96671.31;;;0.97;100.00
19023;BME280;35226;48.606;8.858;2023-02-21T06:20:24;96678.81;;;1.11;100.00
19023;BME280;35226;48.606;8.858;2023-02-21T06:22:50;96672.94;;;1.05;100.00
19023;BME280;35226;48.606;8.858;2023-02-21T06:25:15;96672.94;;;1.05;100.00
19023;BME280;35226;48.606;8.858;2023-02-21T06:27:41;96677.66;;;1.12;100.00
19023;BME280;35226;48.606;8.858;2023-02-21T06:30:08;96674.22;;;1.15;100.00
19023;BME280;35226;48.606;8.858;2023-02-21T06:32:34;96672.59;;;1.10;100.00
19023;BME280;35226;48.606;8.858;2023-02-21T06:35:00;96666.72;;;1.08;100.00
19023;BME280;35226;48.606;8.858;2023-02-21T06:37:28;96674.53;;;1.10;100.00
19023;BME280;35226;48.606;8.858;2023-02-21T06:39:54;96672.22;;;1.12;100.00
19023;BME280;35226;48.606;8.858;2023-02-21T06:42:20;96670.72;;;1.18;100.00
19023;BME280;35226;48.606;8.858;2023-02-21T06:44:48;96667.94;;;1.11;100.00
19023;BME280;35226;48.606;8.858;2023-02-21T06:47:14;96671.56;;;1.22;100.00
19023;BME280;35226;48.606;8.858;2023-02-21T06:49:40;96669.56;;;1.19;100.00
19023;BME280;35226;48.606;8.858;2023-02-21T06:52:07;96672.75;;;1.25;100.00
19023;BME280;35226;48.606;8.858;2023-02-21T06:54:33;96674.69;;;1.24;100.00
19023;BME280;35226;48.606;8.858;2023-02-21T06:56:58;96675.47;;;1.25;100.00
19023;BME280;35226;48.606;8.858;2023-02-21T06:59:27;96675.06;;;1.23;100.00
19023;BME280;35226;48.606;8.858;2023-02-21T07:01:54;96674.28;;;1.22;100.00
19023;BME280;35226;48.606;8.858;2023-02-21T07:04:19;96675.84;;;1.23;100.00
19023;BME280;35226;48.606;8.858;2023-02-21T07:06:45;96670.81;;;1.25;100.00
19023;BME280;35226;48.606;8.858;2023-02-21T07:09:10;96670.44;;;1.27;100.00
19023;BME280;35226;48.606;8.858;2023-02-21T07:11:36;96671.97;;;1.28;100.00
19023;BME280;35226;48.606;8.858;2023-02-21T07:14:02;96667.03;;;1.37;100.00
19023;BME280;35226;48.606;8.858;2023-02-21T07:16:27;96676.75;;;1.38;100.00
19023;BME280;35226;48.606;8.858;2023-02-21T07:18:53;96670.91;;;1.36;100.00
19023;BME280;35226;48.606;8.858;2023-02-21T07:21:19;96670.09;;;1.32;100.00
19023;BME280;35226;48.606;8.858;2023-02-21T07:23:46;96669.00;;;1.40;100.00
19023;BME280;35226;48.606;8.858;2023-02-21T07:26:13;96663.97;;;1.42;100.00
19023;BME280;35226;48.606;8.858;2023-02-21T07:28:39;96669.41;;;1.42;100.00
19023;BME280;35226;48.606;8.858;2023-02-21T07:31:04;96667.53;;;1.46;100.00
19023;BME280;35226;48.606;8.858;2023-02-21T07:33:30;96670.25;;;1.49;100.00
19023;BME280;35226;48.606;8.858;2023-02-21T07:35:55;96670.34;;;1.57;100.00
19023;BME280;35226;48.606;8.858;2023-02-21T07:38:23;96666.84;;;1.60;100.00
19023;BME280;35226;48.606;8.858;2023-02-21T07:40:48;96660.97;;;1.54;100.00
19023;BME280;35226;48.606;8.858;2023-02-21T07:43:14;96667.22;;;1.58;100.00
19023;BME280;35226;48.606;8.858;2023-02-21T07:45:40;96667.63;;;1.60;100.00
19023;BME280;35226;48.606;8.858;2023-02-21T07:48:06;96670.44;;;1.71;100.00
19023;BME280;35226;48.606;8.858;2023-02-21T07:50:31;96671.59;;;1.70;100.00
19023;BME280;35226;48.606;8.858;2023-02-21T07:52:57;96670.94;;;1.87;100.00
19023;BME280;35226;48.606;8.858;2023-02-21T07:55:24;96676.84;;;1.96;100.00
19023;BME280;35226;48.606;8.858;2023-02-21T07:57:50;96675.03;;;2.11;100.00
19023;BME280;35226;48.606;8.858;2023-02-21T08:00:16;96671.56;;;2.14;100.00
19023;BME280;35226;48.606;8.858;2023-02-21T08:02:46;96676.22;;;2.17;100.00
19023;BME280;35226;48.606;8.858;2023-02-21T08:05:14;96686.00;;;2.21;100.00
19023;BME280;35226;48.606;8.858;2023-02-21T08:07:40;96680.97;;;2.27;100.00
19023;BME280;35226;48.606;8.858;2023-02-21T08:10:06;96683.34;;;2.36;100.00
19023;BME280;35226;48.606;8.858;2023-02-21T08:12:31;96681.13;;;2.52;100.00
19023;BME280;35226;48.606;8.858;2023-02-21T08:14:57;96676.47;;;2.52;100.00
19023;BME280;35226;48.606;8.858;2023-02-21T08:17:23;96687.81;;;2.62;100.00
19023;BME280;35226;48.606;8.858;2023-02-21T08:19:48;96681.19;;;2.66;100.00
19023;BME280;35226;48.606;8.858;2023-02-21T08:22:14;96676.16;;;2.72;100.00
19023;BME280;35226;48.606;8.858;2023-02-21T08:24:39;96669.28;;;3.06;100.00
19023;BME280;35226;48.606;8.858;2023-02-21T08:27:05;96668.50;;;3.02;100.00
19023;BME280;35226;48.606;8.858;2023-02-21T08:29:30;96666.22;;;3.29;100.00
19023;BME280;35226;48.606;8.858;2023-02-21T08:31:56;96668.16;;;3.28;100.00
19023;BME280;35226;48.606;8.858;2023-02-21T08:34:21;96669.00;;;3.50;100.00
19023;BME280;35226;48.606;8.858;2023-02-21T08:36:49;96669.00;;;3.57;100.00
19023;BME280;35226;48.606;8.858;2023-02-21T08:39:15;96665.91;;;3.87;100.00
19023;BME280;35226;48.606;8.858;2023-02-21T08:41:42;96660.41;;;3.84;100.00
19023;BME280;35226;48.606;8.858;2023-02-21T08:44:13;96664.31;;;3.93;100.00
19023;BME280;35226;48.606;8.858;2023-02-21T08:46:42;96668.22;;;4.21;100.00
19023;BME280;35226;48.606;8.858;2023-02-21T08:49:08;96667.44;;;4.06;100.00
19023;BME280;35226;48.606;8.858;2023-02-21T08:51:34;96668.22;;;4.17;100.00
19023;BME280;35226;48.606;8.858;2023-02-21T08:54:00;96672.13;;;4.23;100.00
19023;BME280;35226;48.606;8.858;2023-02-21T08:56:27;96670.16;;;4.34;100.00
19023;BME280;35226;48.606;8.858;2023-02-21T08:58:53;96672.06;;;4.52;100.00
19023;BME280;35226;48.606;8.858;2023-02-21T09:01:19;96669.72;;;4.54;100.00
19023;BME280;35226;48.606;8.858;2023-02-21T09:03:45;96668.09;;;4.77;100.00
19023;BME280;35226;48.606;8.858;2023-02-21T09:06:11;96666.88;;;4.89;100.00
19023;BME280;35226;48.606;8.858;2023-02-21T09:08:37;96666.03;;;5.06;100.00
19023;BME280;35226;48.606;8.858;2023-02-21T09:11:04;96667.16;;;5.16;100.00
19023;BME280;35226;48.606;8.858;2023-02-21T09:13:29;96664.75;;;5.25;100.00
19023;BME280;35226;48.606;8.858;2023-02-21T09:15:58;96661.19;;;5.32;100.00
19023;BME280;35226;48.606;8.858;2023-02-21T09:18:23;96659.16;;;5.46;100.00
19023;BME280;35226;48.606;8.858;2023-02-21T09:20:49;96659.44;;;5.63;100.00
19023;BME280;35226;48.606;8.858;2023-02-21T09:23:20;96659.75;;;5.72;100.00
19023;BME280;35226;48.606;8.858;2023-02-21T09:25:47;96661.13;;;5.98;100.00
19023;BME280;35226;48.606;8.858;2023-02-21T09:28:14;96661.53;;;6.00;100.00
19023;BME280;35226;48.606;8.858;2023-02-21T09:30:40;96662.88;;;6.25;100.00
19023;BME280;35226;48.606;8.858;2023-02-21T09:33:06;96665.84;;;6.42;100.00
19023;BME280;35226;48.606;8.858;2023-02-21T09:35:32;96655.06;;;6.61;100.00
19023;BME280;35226;48.606;8.858;2023-02-21T09:37:58;96658.41;;;6.76;100.00
19023;BME280;35226;48.606;8.858;2023-02-21T09:42:54;96647.91;;;7.05;100.00
19023;BME280;35226;48.606;8.858;2023-02-21T09:45:20;96646.03;;;7.25;100.00
19023;BME280;35226;48.606;8.858;2023-02-21T09:47:53;96645.81;;;7.43;100.00
19023;BME280;35226;48.606;8.858;2023-02-21T09:50:24;96639.94;;;7.41;100.00
19023;BME280;35226;48.606;8.858;2023-02-21T09:52:55;96643.47;;;7.68;100.00
19023;BME280;35226;48.606;8.858;2023-02-21T09:55:33;96642.72;;;7.91;100.00
19023;BME280;35226;48.606;8.858;2023-02-21T09:58:00;96635.31;;;8.11;100.00
19023;BME280;35226;48.606;8.858;2023-02-21T10:00:34;96641.38;;;8.49;100.00
19023;BME280;35226;48.606;8.858;2023-02-21T10:05:56;96631.56;;;9.08;100.00
19023;BME280;35226;48.606;8.858;2023-02-21T10:11:24;96633.31;;;9.54;100.00
19023;BME280;35226;48.606;8.858;2023-02-21T10:17:15;96627.84;;;9.86;100.00
19023;BME280;35226;48.606;8.858;2023-02-21T10:19:46;96628.97;;;10.37;100.00
19023;BME280;35226;48.606;8.858;2023-02-21T10:22:34;96632.22;;;10.49;100.00
19023;BME280;35226;48.606;8.858;2023-02-21T10:25:19;96627.25;;;10.72;100.00
19023;BME280;35226;48.606;8.858;2023-02-21T10:27:46;96624.41;;;11.30;100.00
19023;BME280;35226;48.606;8.858;2023-02-21T10:30:23;96625.34;;;11.53;100.00
19023;BME280;35226;48.606;8.858;2023-02-21T10:32:50;96620.25;;;11.64;100.00
19023;BME280;35226;48.606;8.858;2023-02-21T10:35:15;96617.16;;;11.87;99.09
19023;BME280;35226;48.606;8.858;2023-02-21T10:37:50;96613.97;;;12.36;91.59
19023;BME280;35226;48.606;8.858;2023-02-21T10:48:41;96610.19;;;12.77;76.97
19023;BME280;35226;48.606;8.858;2023-02-21T10:51:14;96610.00;;;13.37;73.55
19023;BME280;35226;48.606;8.858;2023-02-21T10:53:42;96607.50;;;13.29;72.88
19023;BME280;35226;48.606;8.858;2023-02-21T11:03:54;96589.81;;;13.76;62.15
19023;BME280;35226;48.606;8.858;2023-02-21T11:08:52;96586.69;;;14.14;68.09
19023;BME280;35226;48.606;8.858;2023-02-21T11:11:39;96586.16;;;14.56;62.84
19023;BME280;35226;48.606;8.858;2023-02-21T11:14:21;96586.47;;;14.49;58.38
19023;BME280;35226;48.606;8.858;2023-02-21T11:17:15;96579.22;;;15.66;54.51
19023;BME280;35226;48.606;8.858;2023-02-21T11:22:11;96574.91;;;15.56;53.87
19023;BME280;35226;48.606;8.858;2023-02-21T11:25:05;96563.00;;;15.88;51.40
19023;BME280;35226;48.606;8.858;2023-02-21T11:27:34;96565.75;;;15.65;49.39
19023;BME280;35226;48.606;8.858;2023-02-21T11:30:15;96557.59;;;15.85;48.02
19023;BME280;35226;48.606;8.858;2023-02-21T11:32:48;96556.31;;;15.53;49.51
19023;BME280;35226;48.606;8.858;2023-02-21T11:38:04;96536.56;;;16.08;48.09
19023;BME280;35226;48.606;8.858;2023-02-21T11:40:31;96536.81;;;16.43;44.20
19023;BME280;35226;48.606;8.858;2023-02-21T11:48:41;96521.06;;;17.22;45.92
19023;BME280;35226;48.606;8.858;2023-02-21T11:54:10;96509.47;;;17.15;42.28
19023;BME280;35226;48.606;8.858;2023-02-21T11:59:33;96493.94;;;17.72;42.69
19023;BME280;35226;48.606;8.858;2023-02-21T12:02:38;96488.88;;;17.91;43.54
19023;BME280;35226;48.606;8.858;2023-02-21T12:13:39;96474.22;;;19.14;39.28
19023;BME280;35226;48.606;8.858;2023-02-21T12:25:02;96457.84;;;18.76;39.66
19023;BME280;35226;48.606;8.858;2023-02-21T12:32:34;96438.78;;;18.80;38.51
19023;BME280;35226;48.606;8.858;2023-02-21T12:35:45;96432.69;;;19.44;37.38
19023;BME280;35226;48.606;8.858;2023-02-21T12:38:26;96436.16;;;19.28;37.59
19023;BME280;35226;48.606;8.858;2023-02-21T12:41:04;96432.38;;;19.37;36.19
19023;BME280;35226;48.606;8.858;2023-02-21T12:43:59;96424.38;;;21.08;34.24
19023;BME280;35226;48.606;8.858;2023-02-21T12:46:33;96420.75;;;20.62;34.50
19023;BME280;35226;48.606;8.858;2023-02-21T12:49:12;96417.16;;;20.51;35.07
19023;BME280;35226;48.606;8.858;2023-02-21T12:51:54;96411.16;;;20.15;34.34
19023;BME280;35226;48.606;8.858;2023-02-21T12:54:31;96412.00;;;19.79;34.41
19023;BME280;35226;48.606;8.858;2023-02-21T12:57:04;96407.44;;;19.39;37.26
19023;BME280;35226;48.606;8.858;2023-02-21T13:04:47;96393.31;;;20.13;36.31
19023;BME280;35226;48.606;8.858;2023-02-21T13:10:04;96390.09;;;19.35;35.40
19023;BME280;35226;48.606;8.858;2023-02-21T13:12:41;96380.91;;;18.97;36.31
19023;BME280;35226;48.606;8.858;2023-02-21T13:17:41;96369.84;;;19.19;36.36
19023;BME280;35226;48.606;8.858;2023-02-21T13:20:12;96362.22;;;20.22;34.59
19023;BME280;35226;48.606;8.858;2023-02-21T13:29:17;96363.44;;;19.08;35.97
19023;BME280;35226;48.606;8.858;2023-02-21T13:31:44;96353.28;;;18.79;35.59
19023;BME280;35226;48.606;8.858;2023-02-21T13:34:11;96349.84;;;18.38;36.24
19023;BME280;35226;48.606;8.858;2023-02-21T13:36:45;96345.34;;;18.46;36.93
19023;BME280;35226;48.606;8.858;2023-02-21T13:39:15;96338.75;;;19.12;35.10
19023;BME280;35226;48.606;8.858;2023-02-21T13:41:48;96339.72;;;18.72;35.59
19023;BME280;35226;48.606;8.858;2023-02-21T13:49:37;96327.88;;;18.57;36.46
19023;BME280;35226;48.606;8.858;2023-02-21T13:57:46;96313.47;;;19.01;36.38
19023;BME280;35226;48.606;8.858;2023-02-21T14:03:28;96299.03;;;19.56;35.38
19023;BME280;35226;48.606;8.858;2023-02-21T14:10:52;96300.22;;;18.96;33.73
19023;BME280;35226;48.606;8.858;2023-02-21T14:13:37;96294.94;;;18.72;35.30
19023;BME280;35226;48.606;8.858;2023-02-21T14:16:08;96293.75;;;18.84;35.93
19023;BME280;35226;48.606;8.858;2023-02-21T14:21:06;96292.44;;;18.48;35.90
19023;BME280;35226;48.606;8.858;2023-02-21T14:23:44;96290.72;;;18.56;36.24
19023;BME280;35226;48.606;8.858;2023-02-21T14:26:36;96292.69;;;18.19;37.90
19023;BME280;35226;48.606;8.858;2023-02-21T14:31:50;96280.59;;;18.01;35.86
19023;BME280;35226;48.606;8.858;2023-02-21T14:34:21;96278.50;;;17.96;36.47
19023;BME280;35226;48.606;8.858;2023-02-21T14:36:48;96276.47;;;17.97;35.51
19023;BME280;35226;48.606;8.858;2023-02-21T14:39:16;96269.06;;;17.68;36.02
19023;BME280;35226;48.606;8.858;2023-02-21T14:55:21;96243.25;;;17.12;38.07
19023;BME280;35226;48.606;8.858;2023-02-21T15:03:31;96246.41;;;16.85;39.32
19023;BME280;35226;48.606;8.858;2023-02-21T15:08:26;96253.56;;;16.56;38.93
19023;BME280;35226;48.606;8.858;2023-02-21T15:10:56;96247.75;;;16.40;39.93
19023;BME280;35226;48.606;8.858;2023-02-21T15:13:32;96240.06;;;16.35;39.23
19023;BME280;35226;48.606;8.858;2023-02-21T15:16:07;96241.31;;;16.34;39.06
19023;BME280;35226;48.606;8.858;2023-02-21T15:18:36;96239.19;;;16.28;39.83
19023;BME280;35226;48.606;8.858;2023-02-21T15:23:27;96242.78;;;16.14;40.15
19023;BME280;35226;48.606;8.858;2023-02-21T15:26:08;96239.88;;;16.09;40.58
19023;BME280;35226;48.606;8.858;2023-02-21T15:28:40;96241.06;;;16.02;40.74
19023;BME280;35226;48.606;8.858;2023-02-21T15:31:08;96236.66;;;15.96;40.86
19023;BME280;35226;48.606;8.858;2023-02-21T15:33:36;96232.97;;;15.89;41.57
19023;BME280;35226;48.606;8.858;2023-02-21T15:36:22;96230.09;;;15.84;42.28
19023;BME280;35226;48.606;8.858;2023-02-21T15:38:51;96233.84;;;15.81;42.07
19023;BME280;35226;48.606;8.858;2023-02-21T15:41:31;96227.28;;;15.69;42.39
19023;BME280;35226;48.606;8.858;2023-02-21T15:46:45;96223.84;;;15.60;43.30
19023;BME280;35226;48.606;8.858;2023-02-21T15:49:21;96226.97;;;15.52;42.44
19023;BME280;35226;48.606;8.858;2023-02-21T15:51:47;96217.84;;;15.52;42.78
19023;BME280;35226;48.606;8.858;2023-02-21T15:56:43;96220.25;;;15.44;43.09
19023;BME280;35226;48.606;8.858;2023-02-21T15:59:24;96218.00;;;15.34;43.24
19023;BME280;35226;48.606;8.858;2023-02-21T16:04:40;96217.31;;;15.24;43.94
19023;BME280;35226;48.606;8.858;2023-02-21T16:07:14;96208.06;;;15.18;44.54
19023;BME280;35226;48.606;8.858;2023-02-21T16:09:45;96203.34;;;15.09;44.91
19023;BME280;35226;48.606;8.858;2023-02-21T16:14:38;96209.75;;;15.01;44.36